Mega Smeralda — ICIU — position and weather

sailwx.info

Track history (hours):
 
Tides and Currents Weather Stations Pressure Air Temp Water Temp Dewpoint Dewpoint Depression Visibility Wind Speed Wind Dir Waves Ship Positions

Mega Smeralda

Last reported at 2014-Jul-25 00:32 UTC. Time now 2014-Jul-25 01:33 UTC.
Position N 43°03' E 007°42'.

Length 171 m; draft 6.3 m.

Type: Passenger vessel. MMSI: 247228600.

Date/timePositionNaut miles runAvg speedWind from/ knotsBaromVisibWave heightAir tempDewpointWater temp
2014-Jul-25 00:32N 43°03' E 007°42'1613.7
2014-Jul-24 23:23N 42°49' E 007°52'1213.8
2014-Jul-24 22:33N 42°39' E 007°58'1514.7
2014-Jul-24 21:34N 42°26' E 008°07'21 1.1
2014-Jul-24 01:31N 42°11' E 007°46'251256.8
2014-Jul-24 00:33N 42°19' E 002°08'225227.8
2014-Jul-23 23:33N 42°27' E 007°12'1616.1
2014-Jul-23 22:33N 42°36' E 006°54'1716.5
2014-Jul-23 21:33N 42°44' E 006°34'1615.9
2014-Jul-23 20:33N 42°53' E 006°16'1615.8
2014-Jul-23 19:33N 43°03' E 005°60'5 5.0
2014-Jul-23 18:33N 43°07' E 005°56'0 0.0
2014-Jul-23 17:33N 43°07' E 005°56'0 0.0
2014-Jul-23 16:33N 43°07' E 005°56'0 0.0
2014-Jul-23 15:33N 43°07' E 005°56'1 0.9
2014-Jul-23 14:33N 43°06' E 005°55'1414.6
2014-Jul-23 13:33N 42°56' E 006°09'1817.7
2014-Jul-23 12:33N 42°47' E 006°30'1717.3
2014-Jul-23 11:33N 42°38' E 006°49'1817.5
2014-Jul-23 10:33N 42°29' E 007°10'1818.4
2014-Jul-23 09:33N 42°19' E 007°31'1918.9
2014-Jul-23 08:33N 42°09' E 007°53'1918.7
2014-Jul-23 07:32N 41°58' E 008°14'1818.3
2014-Jul-23 06:33N 41°50' E 008°35'9 3.1
2014-Jul-23 03:34N 41°54' E 008°24'1616.3
2014-Jul-23 02:34N 42°03' E 008°06'1716.5
2014-Jul-23 01:34N 42°12' E 007°47'1716.8
2014-Jul-23 00:34N 42°21' E 007°28'1716.9
2014-Jul-22 23:33N 42°30' E 007°09'1717.0
2014-Jul-22 22:34N 42°38' E 006°48'1717.0
2014-Jul-22 21:33N 42°47' E 006°29'1616.3
2014-Jul-22 20:33N 42°56' E 006°10'1514.7
2014-Jul-22 19:33N 43°06' E 005°55'2 1.5
2014-Jul-22 18:33N 43°07' E 005°56'1 0.5
2014-Jul-22 17:33N 43°07' E 005°55'1616.4
2014-Jul-22 16:33N 42°55' E 006°11'2019.6
2014-Jul-22 15:33N 42°45' E 006°34'1817.7
2014-Jul-22 14:33N 42°36' E 006°55'1716.5
2014-Jul-22 13:33N 42°27' E 007°13'1918.2
2014-Jul-22 12:32N 42°17' E 007°35'2018.0
2014-Jul-22 11:24N 42°06' E 007°58'64 5.3
2014-Jul-21 23:21N 42°40' E 006°45'1418.4
2014-Jul-21 22:33N 42°48' E 006°28'1817.7
2014-Jul-21 21:33N 42°57' E 006°07'1312.9
2014-Jul-21 20:33N 43°07' E 005°56'0 0.0
2014-Jul-21 20:18N 43°07' E 005°56'0 0.0
2014-Jul-21 19:33N 43°07' E 005°56'2 1.7
2014-Jul-21 18:34N 43°05' E 005°55'1515.1
2014-Jul-21 17:33N 42°55' E 006°11'1818.1
2014-Jul-21 16:33N 42°52' E 006°35'1818.0
2014-Jul-21 15:34N 42°50' E 006°59'1615.6
2014-Jul-21 14:33N 42°40' E 007°15'29 2.1
2014-Jul-21 00:22N 42°44' E 006°36'1619.5
2014-Jul-20 23:33N 42°52' E 006°18'1919.3
2014-Jul-20 22:33N 43°05' E 005°58'3 2.7
2014-Jul-20 21:33N 43°07' E 005°56'6 6.5
2014-Jul-20 20:33N 43°01' E 006°00'1918.8
2014-Jul-20 19:33N 42°54' E 006°24'2019.6
2014-Jul-20 18:33N 42°52' E 006°51'1918.9
2014-Jul-20 17:33N 42°49' E 007°16'4218.9
2014-Jul-20 15:19N 42°44' E 008°13'1619.4
2014-Jul-20 14:30N 42°42' E 008°35'1717.8
2014-Jul-20 13:33N 42°39' E 008°57'1 1.3
2014-Jul-20 12:33N 42°40' E 008°56'2019.6
2014-Jul-20 11:32N 42°43' E 008°30'1919.5
2014-Jul-20 10:32N 42°46' E 008°03'1919.3
2014-Jul-20 09:33N 42°48' E 007°38'1919.1
2014-Jul-20 08:33N 42°50' E 007°12'1918.7
2014-Jul-20 07:33N 42°52' E 006°47'1817.9
2014-Jul-20 06:33N 42°55' E 006°22'1717.4
2014-Jul-20 05:33N 43°01' E 006°00'6 6.4
2014-Jul-20 04:33N 43°07' E 005°56'2 1.6
2014-Jul-20 03:34N 43°05' E 005°55'1615.5
2014-Jul-20 02:33N 42°56' E 006°12'1919.1
2014-Jul-20 01:33N 42°58' E 006°38'1918.7
2014-Jul-20 00:33N 42°59' E 007°04'1918.9
2014-Jul-19 23:33N 42°59' E 007°30'1919.2
2014-Jul-19 22:33N 43°01' E 007°56'1919.2
2014-Jul-19 21:33N 43°02' E 008°22'1919.3
2014-Jul-19 20:34N 43°03' E 008°49'2020.0
2014-Jul-19 19:34N 43°04' E 009°16'1615.8
2014-Jul-19 18:34N 42°53' E 009°32'2 0.8
2014-Jul-19 15:34N 42°52' E 009°35'1716.7
2014-Jul-19 14:33N 43°08' E 009°44'1716.7
2014-Jul-19 13:33N 43°20' E 009°60'1616.4
2014-Jul-19 12:33N 43°32' E 010°15'2 2.5
2014-Jul-19 11:33N 43°33' E 010°18'1 0.7
2014-Jul-19 10:33N 43°33' E 010°17'1514.6
2014-Jul-19 09:33N 43°22' E 010°03'1918.5
2014-Jul-19 08:33N 43°09' E 009°45'1918.7
2014-Jul-19 07:33N 42°52' E 009°34'9 4.4
2014-Jul-19 05:33N 42°44' E 009°30'1817.6
2014-Jul-19 04:33N 43°01' E 009°29'1818.1
2014-Jul-19 03:33N 43°04' E 009°04'1818.3
2014-Jul-19 02:33N 43°03' E 008°39'1918.6
2014-Jul-19 01:33N 43°01' E 008°14'1918.7
2014-Jul-19 00:33N 43°00' E 007°48'1918.7
2014-Jul-18 23:33N 42°59' E 007°23'1919.0
2014-Jul-18 22:33N 42°58' E 006°57'1918.7
2014-Jul-18 21:33N 42°56' E 006°32'1918.6
2014-Jul-18 20:33N 42°57' E 006°06'1312.6
2014-Jul-18 19:33N 43°07' E 005°56'0 0.0
2014-Jul-18 18:33N 43°07' E 005°56'3015.0
2014-Jul-18 16:33N 42°57' E 006°34'1919.4
2014-Jul-18 15:33N 42°54' E 007°00'1919.2
2014-Jul-18 14:33N 42°51' E 007°26'1919.2
2014-Jul-18 13:33N 42°48' E 007°52'1919.5
2014-Jul-18 12:33N 42°45' E 008°18'1919.2
2014-Jul-18 11:33N 42°42' E 008°44'10 9.5
2014-Jul-18 10:33N 42°38' E 008°56'4 4.2
2014-Jul-18 09:33N 42°42' E 008°54'2020.1
2014-Jul-18 08:33N 42°55' E 008°33'2020.0
2014-Jul-18 07:34N 43°08' E 008°12'2019.5
2014-Jul-18 06:33N 43°21' E 007°51'1919.3
2014-Jul-18 05:33N 43°33' E 007°31'1313.1
2014-Jul-18 04:33N 43°42' E 007°17'1 1.0
2014-Jul-18 03:33N 43°41' E 007°17'1313.1
2014-Jul-18 02:34N 43°28' E 007°24'1414.2
2014-Jul-18 01:33N 43°16' E 007°33'1414.2
2014-Jul-18 00:33N 43°03' E 007°42'1414.0
2014-Jul-17 23:33N 42°51' E 007°51'1414.0
2014-Jul-17 22:34N 42°38' E 007°59'1414.1
2014-Jul-17 21:34N 42°25' E 008°07'1514.5
2014-Jul-17 20:34N 42°12' E 008°16'1414.3
2014-Jul-17 19:34N 41°59' E 008°24'1313.0
2014-Jul-17 18:34N 41°50' E 008°36'12 0.8
2014-Jul-17 03:33N 41°55' E 008°21'1515.2
2014-Jul-17 02:33N 42°04' E 008°04'1515.2
2014-Jul-17 01:33N 42°12' E 007°47'1515.1
2014-Jul-17 00:33N 42°20' E 007°30'1515.0
2014-Jul-16 23:34N 42°28' E 007°13'1515.1
2014-Jul-16 22:33N 42°36' E 006°55'1615.9
2014-Jul-16 21:34N 42°44' E 006°36'1616.0
2014-Jul-16 20:33N 42°52' E 006°18'1615.8
2014-Jul-16 19:33N 43°01' E 006°00'7 6.5
2014-Jul-16 18:33N 43°07' E 005°56'0 0.0
2014-Jul-16 17:33N 43°07' E 005°56'0 0.0
2014-Jul-16 16:33N 43°07' E 005°56'0 0.0
2014-Jul-16 15:33N 43°07' E 005°56'5 5.2
2014-Jul-16 14:33N 43°03' E 005°60'1717.0
2014-Jul-16 13:33N 42°52' E 006°18'1717.2
2014-Jul-16 12:33N 42°43' E 006°38'1716.8
2014-Jul-16 11:33N 42°34' E 006°57'1716.9
2014-Jul-16 10:33N 42°24' E 007°16'1717.1
2014-Jul-16 09:33N 42°15' E 007°35'1717.1
2014-Jul-16 08:33N 42°06' E 007°55'1716.9
2014-Jul-16 07:33N 41°57' E 008°14'1716.8
2014-Jul-16 06:33N 41°50' E 008°34'10 3.2
2014-Jul-16 03:33N 41°54' E 008°23'1818.0
2014-Jul-16 02:33N 42°05' E 008°03'1616.0
2014-Jul-16 01:33N 42°13' E 007°45'1717.0
2014-Jul-16 00:33N 42°22' E 007°26'1717.1
2014-Jul-15 23:33N 42°30' E 007°06'1716.8
2014-Jul-15 22:34N 42°39' E 006°46'1716.5
2014-Jul-15 21:33N 42°48' E 006°27'1716.6
2014-Jul-15 20:33N 42°57' E 006°08'1313.5
2014-Jul-15 19:34N 43°07' E 005°56'0 0.2
2014-Jul-15 18:34N 43°07' E 005°56'2 1.8
2014-Jul-15 17:33N 43°05' E 005°57'1615.9
2014-Jul-15 16:33N 42°54' E 006°12'1716.8
2014-Jul-15 15:33N 42°45' E 006°32'1716.5
2014-Jul-15 14:33N 42°37' E 006°51'1716.8
2014-Jul-15 13:33N 42°27' E 007°10'1716.9
2014-Jul-15 12:33N 42°18' E 007°29'2118.6
2014-Jul-15 11:26N 42°07' E 007°52'2119.2
2014-Jul-15 10:21N 41°56' E 008°16'  
Track history (hours):
 
Tides and Currents Weather Stations Pressure Air Temp Water Temp Dewpoint Dewpoint Depression Visibility Wind Speed Wind Dir Waves Ship Positions

Mega Smeralda

Last reported at 2014-Jul-25 00:32 UTC. Time now 2014-Jul-25 01:33 UTC.
Position N 43°03' E 007°42'.

Length 171 m; draft 6.3 m.

Type: Passenger vessel. MMSI: 247228600.

Date/timePositionNaut miles runAvg speedWind from/ knotsBaromVisibWave heightAir tempDewpointWater temp
2014-Jul-25 00:32N 43°03' E 007°42'1613.7
2014-Jul-24 23:23N 42°49' E 007°52'1213.8
2014-Jul-24 22:33N 42°39' E 007°58'1514.7
2014-Jul-24 21:34N 42°26' E 008°07'21 1.1
2014-Jul-24 01:31N 42°11' E 007°46'251256.8
2014-Jul-24 00:33N 42°19' E 002°08'225227.8
2014-Jul-23 23:33N 42°27' E 007°12'1616.1
2014-Jul-23 22:33N 42°36' E 006°54'1716.5
2014-Jul-23 21:33N 42°44' E 006°34'1615.9
2014-Jul-23 20:33N 42°53' E 006°16'1615.8
2014-Jul-23 19:33N 43°03' E 005°60'5 5.0
2014-Jul-23 18:33N 43°07' E 005°56'0 0.0
2014-Jul-23 17:33N 43°07' E 005°56'0 0.0
2014-Jul-23 16:33N 43°07' E 005°56'0 0.0
2014-Jul-23 15:33N 43°07' E 005°56'1 0.9
2014-Jul-23 14:33N 43°06' E 005°55'1414.6
2014-Jul-23 13:33N 42°56' E 006°09'1817.7
2014-Jul-23 12:33N 42°47' E 006°30'1717.3
2014-Jul-23 11:33N 42°38' E 006°49'1817.5
2014-Jul-23 10:33N 42°29' E 007°10'1818.4
2014-Jul-23 09:33N 42°19' E 007°31'1918.9
2014-Jul-23 08:33N 42°09' E 007°53'1918.7
2014-Jul-23 07:32N 41°58' E 008°14'1818.3
2014-Jul-23 06:33N 41°50' E 008°35'9 3.1
2014-Jul-23 03:34N 41°54' E 008°24'1616.3
2014-Jul-23 02:34N 42°03' E 008°06'1716.5
2014-Jul-23 01:34N 42°12' E 007°47'1716.8
2014-Jul-23 00:34N 42°21' E 007°28'1716.9
2014-Jul-22 23:33N 42°30' E 007°09'1717.0
2014-Jul-22 22:34N 42°38' E 006°48'1717.0
2014-Jul-22 21:33N 42°47' E 006°29'1616.3
2014-Jul-22 20:33N 42°56' E 006°10'1514.7
2014-Jul-22 19:33N 43°06' E 005°55'2 1.5
2014-Jul-22 18:33N 43°07' E 005°56'1 0.5
2014-Jul-22 17:33N 43°07' E 005°55'1616.4
2014-Jul-22 16:33N 42°55' E 006°11'2019.6
2014-Jul-22 15:33N 42°45' E 006°34'1817.7
2014-Jul-22 14:33N 42°36' E 006°55'1716.5
2014-Jul-22 13:33N 42°27' E 007°13'1918.2
2014-Jul-22 12:32N 42°17' E 007°35'2018.0
2014-Jul-22 11:24N 42°06' E 007°58'64 5.3
2014-Jul-21 23:21N 42°40' E 006°45'1418.4
2014-Jul-21 22:33N 42°48' E 006°28'1817.7
2014-Jul-21 21:33N 42°57' E 006°07'1312.9
2014-Jul-21 20:33N 43°07' E 005°56'0 0.0
2014-Jul-21 20:18N 43°07' E 005°56'0 0.0
2014-Jul-21 19:33N 43°07' E 005°56'2 1.7
2014-Jul-21 18:34N 43°05' E 005°55'1515.1
2014-Jul-21 17:33N 42°55' E 006°11'1818.1
2014-Jul-21 16:33N 42°52' E 006°35'1818.0
2014-Jul-21 15:34N 42°50' E 006°59'1615.6
2014-Jul-21 14:33N 42°40' E 007°15'29 2.1
2014-Jul-21 00:22N 42°44' E 006°36'1619.5
2014-Jul-20 23:33N 42°52' E 006°18'1919.3
2014-Jul-20 22:33N 43°05' E 005°58'3 2.7
2014-Jul-20 21:33N 43°07' E 005°56'6 6.5
2014-Jul-20 20:33N 43°01' E 006°00'1918.8
2014-Jul-20 19:33N 42°54' E 006°24'2019.6
2014-Jul-20 18:33N 42°52' E 006°51'1918.9
2014-Jul-20 17:33N 42°49' E 007°16'4218.9
2014-Jul-20 15:19N 42°44' E 008°13'1619.4
2014-Jul-20 14:30N 42°42' E 008°35'1717.8
2014-Jul-20 13:33N 42°39' E 008°57'1 1.3
2014-Jul-20 12:33N 42°40' E 008°56'2019.6
2014-Jul-20 11:32N 42°43' E 008°30'1919.5
2014-Jul-20 10:32N 42°46' E 008°03'1919.3
2014-Jul-20 09:33N 42°48' E 007°38'1919.1
2014-Jul-20 08:33N 42°50' E 007°12'1918.7
2014-Jul-20 07:33N 42°52' E 006°47'1817.9
2014-Jul-20 06:33N 42°55' E 006°22'1717.4
2014-Jul-20 05:33N 43°01' E 006°00'6 6.4
2014-Jul-20 04:33N 43°07' E 005°56'2 1.6
2014-Jul-20 03:34N 43°05' E 005°55'1615.5
2014-Jul-20 02:33N 42°56' E 006°12'1919.1
2014-Jul-20 01:33N 42°58' E 006°38'1918.7
2014-Jul-20 00:33N 42°59' E 007°04'1918.9
2014-Jul-19 23:33N 42°59' E 007°30'1919.2
2014-Jul-19 22:33N 43°01' E 007°56'1919.2
2014-Jul-19 21:33N 43°02' E 008°22'1919.3
2014-Jul-19 20:34N 43°03' E 008°49'2020.0
2014-Jul-19 19:34N 43°04' E 009°16'1615.8
2014-Jul-19 18:34N 42°53' E 009°32'2 0.8
2014-Jul-19 15:34N 42°52' E 009°35'1716.7
2014-Jul-19 14:33N 43°08' E 009°44'1716.7
2014-Jul-19 13:33N 43°20' E 009°60'1616.4
2014-Jul-19 12:33N 43°32' E 010°15'2 2.5
2014-Jul-19 11:33N 43°33' E 010°18'1 0.7
2014-Jul-19 10:33N 43°33' E 010°17'1514.6
2014-Jul-19 09:33N 43°22' E 010°03'1918.5
2014-Jul-19 08:33N 43°09' E 009°45'1918.7
2014-Jul-19 07:33N 42°52' E 009°34'9 4.4
2014-Jul-19 05:33N 42°44' E 009°30'1817.6
2014-Jul-19 04:33N 43°01' E 009°29'1818.1
2014-Jul-19 03:33N 43°04' E 009°04'1818.3
2014-Jul-19 02:33N 43°03' E 008°39'1918.6
2014-Jul-19 01:33N 43°01' E 008°14'1918.7
2014-Jul-19 00:33N 43°00' E 007°48'1918.7
2014-Jul-18 23:33N 42°59' E 007°23'1919.0
2014-Jul-18 22:33N 42°58' E 006°57'1918.7
2014-Jul-18 21:33N 42°56' E 006°32'1918.6
2014-Jul-18 20:33N 42°57' E 006°06'1312.6
2014-Jul-18 19:33N 43°07' E 005°56'0 0.0
2014-Jul-18 18:33N 43°07' E 005°56'3015.0
2014-Jul-18 16:33N 42°57' E 006°34'1919.4
2014-Jul-18 15:33N 42°54' E 007°00'1919.2
2014-Jul-18 14:33N 42°51' E 007°26'1919.2
2014-Jul-18 13:33N 42°48' E 007°52'1919.5
2014-Jul-18 12:33N 42°45' E 008°18'1919.2
2014-Jul-18 11:33N 42°42' E 008°44'10 9.5
2014-Jul-18 10:33N 42°38' E 008°56'4 4.2
2014-Jul-18 09:33N 42°42' E 008°54'2020.1
2014-Jul-18 08:33N 42°55' E 008°33'2020.0
2014-Jul-18 07:34N 43°08' E 008°12'2019.5
2014-Jul-18 06:33N 43°21' E 007°51'1919.3
2014-Jul-18 05:33N 43°33' E 007°31'1313.1
2014-Jul-18 04:33N 43°42' E 007°17'1 1.0
2014-Jul-18 03:33N 43°41' E 007°17'1313.1
2014-Jul-18 02:34N 43°28' E 007°24'1414.2
2014-Jul-18 01:33N 43°16' E 007°33'1414.2
2014-Jul-18 00:33N 43°03' E 007°42'1414.0
2014-Jul-17 23:33N 42°51' E 007°51'1414.0
2014-Jul-17 22:34N 42°38' E 007°59'1414.1
2014-Jul-17 21:34N 42°25' E 008°07'1514.5
2014-Jul-17 20:34N 42°12' E 008°16'1414.3
2014-Jul-17 19:34N 41°59' E 008°24'1313.0
2014-Jul-17 18:34N 41°50' E 008°36'12 0.8
2014-Jul-17 03:33N 41°55' E 008°21'1515.2
2014-Jul-17 02:33N 42°04' E 008°04'1515.2
2014-Jul-17 01:33N 42°12' E 007°47'1515.1
2014-Jul-17 00:33N 42°20' E 007°30'1515.0
2014-Jul-16 23:34N 42°28' E 007°13'1515.1
2014-Jul-16 22:33N 42°36' E 006°55'1615.9
2014-Jul-16 21:34N 42°44' E 006°36'1616.0
2014-Jul-16 20:33N 42°52' E 006°18'1615.8
2014-Jul-16 19:33N 43°01' E 006°00'7 6.5
2014-Jul-16 18:33N 43°07' E 005°56'0 0.0
2014-Jul-16 17:33N 43°07' E 005°56'0 0.0
2014-Jul-16 16:33N 43°07' E 005°56'0 0.0
2014-Jul-16 15:33N 43°07' E 005°56'5 5.2
2014-Jul-16 14:33N 43°03' E 005°60'1717.0
2014-Jul-16 13:33N 42°52' E 006°18'1717.2
2014-Jul-16 12:33N 42°43' E 006°38'1716.8
2014-Jul-16 11:33N 42°34' E 006°57'1716.9
2014-Jul-16 10:33N 42°24' E 007°16'1717.1
2014-Jul-16 09:33N 42°15' E 007°35'1717.1
2014-Jul-16 08:33N 42°06' E 007°55'1716.9
2014-Jul-16 07:33N 41°57' E 008°14'1716.8
2014-Jul-16 06:33N 41°50' E 008°34'10 3.2
2014-Jul-16 03:33N 41°54' E 008°23'1818.0
2014-Jul-16 02:33N 42°05' E 008°03'1616.0
2014-Jul-16 01:33N 42°13' E 007°45'1717.0
2014-Jul-16 00:33N 42°22' E 007°26'1717.1
2014-Jul-15 23:33N 42°30' E 007°06'1716.8
2014-Jul-15 22:34N 42°39' E 006°46'1716.5
2014-Jul-15 21:33N 42°48' E 006°27'1716.6
2014-Jul-15 20:33N 42°57' E 006°08'1313.5
2014-Jul-15 19:34N 43°07' E 005°56'0 0.2
2014-Jul-15 18:34N 43°07' E 005°56'2 1.8
2014-Jul-15 17:33N 43°05' E 005°57'1615.9
2014-Jul-15 16:33N 42°54' E 006°12'1716.8
2014-Jul-15 15:33N 42°45' E 006°32'1716.5
2014-Jul-15 14:33N 42°37' E 006°51'1716.8
2014-Jul-15 13:33N 42°27' E 007°10'1716.9
2014-Jul-15 12:33N 42°18' E 007°29'2118.6
2014-Jul-15 11:26N 42°07' E 007°52'2119.2
2014-Jul-15 10:21N 41°56' E 008°16'  

Dump ship's entire track history